Delta Pioneer — SYIO — position and weather

sailwx.info

Track history (hours):
 
Tides and Currents Weather Stations Pressure Air Temp Water Temp Dewpoint Dewpoint Depression Visibility Wind Speed Wind Dir Waves Ship Positions

Delta Pioneer

Last reported at 2014-Jul-25 23:25 UTC. Time now 2014-Jul-26 01:07 UTC.
Position N 51°45' E 002°34'.

Length 249 m; draft 8 m.

Type: Tanker. MMSI: 240244000.

Date/timePositionNaut miles runAvg speedWind from/ knotsBaromVisibWave heightAir tempDewpointWater temp
2014-Jul-25 23:25N 51°45' E 002°34'910.7
2014-Jul-25 22:33N 51°38' E 002°25'1210.7
2014-Jul-25 21:27N 51°29' E 002°12'910.0
2014-Jul-25 20:33N 51°21' E 002°06'10 9.5
2014-Jul-25 19:33N 51°12' E 001°60'1110.5
2014-Jul-25 18:34N 51°07' E 001°45'1010.0
2014-Jul-25 17:33N 51°01' E 001°33'10 9.7
2014-Jul-25 16:33N 50°53' E 001°25'1010.4
2014-Jul-25 15:34N 50°43' E 001°21'1510.2
2014-Jul-25 14:04N 50°32' E 001°03'1010.2
2014-Jul-25 13:07N 50°29' E 000°50'610.4
2014-Jul-25 12:33N 50°27' E 000°40'1010.5
2014-Jul-25 11:34N 50°24' E 000°25'9610.6
2014-Jul-25 02:30N 49°59' W 001°60'1010.5
2014-Jul-25 01:32N 49°56' W 002°15'1010.4
2014-Jul-25 00:33N 49°53' W 002°30'1010.2
2014-Jul-24 23:31N 49°50' W 002°46'1110.4
2014-Jul-24 22:29N 49°47' W 003°02'140 9.2
2014-Jul-24 07:13N 48°10' W 005°36'910.4
2014-Jul-24 06:21N 48°02' W 005°30'1110.6
2014-Jul-24 05:20N 47°53' W 005°22'810.2
2014-Jul-24 04:33N 47°45' W 005°17'1010.3
2014-Jul-24 03:34N 47°41' W 005°03'1010.4
2014-Jul-24 02:33N 47°37' W 004°48'1110.5
2014-Jul-24 01:34N 47°33' W 004°34'3310.4
2014-Jul-23 22:24N 47°21' W 003°49'1010.3
2014-Jul-23 21:24N 47°16' W 003°36'910.6
2014-Jul-23 20:34N 47°12' W 003°24'1010.4
2014-Jul-23 19:33N 47°08' W 003°10'1110.4
2014-Jul-23 18:32N 47°04' W 002°55'19 0.5
2014-Jul-22 05:32N 47°06' W 002°28'0 0.0
2014-Jul-22 02:29N 47°06' W 002°28'0 0.0
2014-Jul-21 17:32N 47°05' W 002°28'0 0.1
2014-Jul-21 16:23N 47°06' W 002°28'  
2014-Jul-18 18:26N 38°11' W 009°48'1010.6
2014-Jul-18 17:30N 38°02' W 009°45'1010.4
2014-Jul-18 16:33N 37°52' W 009°42'1010.5
2014-Jul-18 15:33N 37°42' W 009°39'1010.4
2014-Jul-18 14:33N 37°32' W 009°36'3810.9
2014-Jul-18 11:06N 36°55' W 009°25'2110.1
2014-Jul-18 09:05N 36°40' W 009°08'1110.7
2014-Jul-18 08:04N 36°36' W 008°55'610.8
2014-Jul-18 07:33N 36°35' W 008°49'1110.8
2014-Jul-18 06:33N 36°32' W 008°36'1010.4
2014-Jul-18 05:33N 36°29' W 008°23'1010.3
2014-Jul-18 04:33N 36°26' W 008°11'1010.4
2014-Jul-18 03:33N 36°22' W 007°59'1110.5
2014-Jul-18 02:33N 36°20' W 007°46'1010.4
2014-Jul-18 01:33N 36°16' W 007°34'1110.6
2014-Jul-18 00:33N 36°13' W 007°21'  
Track history (hours):
 
Tides and Currents Weather Stations Pressure Air Temp Water Temp Dewpoint Dewpoint Depression Visibility Wind Speed Wind Dir Waves Ship Positions

Delta Pioneer

Last reported at 2014-Jul-25 23:25 UTC. Time now 2014-Jul-26 01:07 UTC.
Position N 51°45' E 002°34'.

Length 249 m; draft 8 m.

Type: Tanker. MMSI: 240244000.

Date/timePositionNaut miles runAvg speedWind from/ knotsBaromVisibWave heightAir tempDewpointWater temp
2014-Jul-25 23:25N 51°45' E 002°34'910.7
2014-Jul-25 22:33N 51°38' E 002°25'1210.7
2014-Jul-25 21:27N 51°29' E 002°12'910.0
2014-Jul-25 20:33N 51°21' E 002°06'10 9.5
2014-Jul-25 19:33N 51°12' E 001°60'1110.5
2014-Jul-25 18:34N 51°07' E 001°45'1010.0
2014-Jul-25 17:33N 51°01' E 001°33'10 9.7
2014-Jul-25 16:33N 50°53' E 001°25'1010.4
2014-Jul-25 15:34N 50°43' E 001°21'1510.2
2014-Jul-25 14:04N 50°32' E 001°03'1010.2
2014-Jul-25 13:07N 50°29' E 000°50'610.4
2014-Jul-25 12:33N 50°27' E 000°40'1010.5
2014-Jul-25 11:34N 50°24' E 000°25'9610.6
2014-Jul-25 02:30N 49°59' W 001°60'1010.5
2014-Jul-25 01:32N 49°56' W 002°15'1010.4
2014-Jul-25 00:33N 49°53' W 002°30'1010.2
2014-Jul-24 23:31N 49°50' W 002°46'1110.4
2014-Jul-24 22:29N 49°47' W 003°02'140 9.2
2014-Jul-24 07:13N 48°10' W 005°36'910.4
2014-Jul-24 06:21N 48°02' W 005°30'1110.6
2014-Jul-24 05:20N 47°53' W 005°22'810.2
2014-Jul-24 04:33N 47°45' W 005°17'1010.3
2014-Jul-24 03:34N 47°41' W 005°03'1010.4
2014-Jul-24 02:33N 47°37' W 004°48'1110.5
2014-Jul-24 01:34N 47°33' W 004°34'3310.4
2014-Jul-23 22:24N 47°21' W 003°49'1010.3
2014-Jul-23 21:24N 47°16' W 003°36'910.6
2014-Jul-23 20:34N 47°12' W 003°24'1010.4
2014-Jul-23 19:33N 47°08' W 003°10'1110.4
2014-Jul-23 18:32N 47°04' W 002°55'19 0.5
2014-Jul-22 05:32N 47°06' W 002°28'0 0.0
2014-Jul-22 02:29N 47°06' W 002°28'0 0.0
2014-Jul-21 17:32N 47°05' W 002°28'0 0.1
2014-Jul-21 16:23N 47°06' W 002°28'  
2014-Jul-18 18:26N 38°11' W 009°48'1010.6
2014-Jul-18 17:30N 38°02' W 009°45'1010.4
2014-Jul-18 16:33N 37°52' W 009°42'1010.5
2014-Jul-18 15:33N 37°42' W 009°39'1010.4
2014-Jul-18 14:33N 37°32' W 009°36'3810.9
2014-Jul-18 11:06N 36°55' W 009°25'2110.1
2014-Jul-18 09:05N 36°40' W 009°08'1110.7
2014-Jul-18 08:04N 36°36' W 008°55'610.8
2014-Jul-18 07:33N 36°35' W 008°49'1110.8
2014-Jul-18 06:33N 36°32' W 008°36'1010.4
2014-Jul-18 05:33N 36°29' W 008°23'1010.3
2014-Jul-18 04:33N 36°26' W 008°11'1010.4
2014-Jul-18 03:33N 36°22' W 007°59'1110.5
2014-Jul-18 02:33N 36°20' W 007°46'1010.4
2014-Jul-18 01:33N 36°16' W 007°34'1110.6
2014-Jul-18 00:33N 36°13' W 007°21'  

Dump ship's entire track history